Ryder, ND (58779)

3:49 AM CST on February 06, 2016 (GMT -0600)
Downtown Garrison, ND | | Change Station
CLOSE
Current Station
Personal Weather Station
Location: Garrison, ND
Elevation: 1929 ft
Nearby Weather Stations
Active Advisory: High Wind Warning

Elev 1929 ft 47.65 °N, 101.41 °W | Updated 12 minutes ago

Partly Cloudy
Partly Cloudy
27.5 °F
Feels Like 28 °F
N
2.2
Wind Variable Wind from South

Today
High -- | Low -- °F
--% Chance of Precip.
Yesterday
High -- | Low -- °F
Precip. -- in
Pressure 29.88 in
Visibility 10.0 miles
Clouds Clear
Windchill 28 °F
Dew Point 24 °F
Humidity 88%
Rainfall 0.00 in
Snow Depth Not available.
8:08 AM 5:55 PM
Waning Crescent, 6% visible
METAR KMOT 060854Z AUTO 20009KT 10SM CLR 01/M06 A2982 RMK AO2 SLP117 T00061061 56025
Pressure 29.88 in
Visibility 10.0 miles
Clouds Clear
Windchill 28 °F
Dew Point 24 °F
Humidity 88%
Rainfall 0.00 in
Snow Depth Not available.
8:08 AM 5:55 PM
Waning Crescent, 6% visible
METAR KMOT 060854Z AUTO 20009KT 10SM CLR 01/M06 A2982 RMK AO2 SLP117 T00061061 56025

10-Day Weather Forecast

Almanac

Astronomy

Feb. 06, 2016 Rise Set
Actual Time
Civil Twilight
Nautical Twilight
Astronomical Twilight
Moon
Length of Visible Light
Length of Day
Tomorrow will be .
, % of the Moon is Illuminated

Today's Extremes

State Highs State Lows

Community

WunderPhotos

Upload Photos

1,890,933 photos uploaded!

WunderBlog® & News

Nearby

Air Quality

  Air Quality AQ Index Pollutant
Not available.

Snow Depth

Station Depth Elevation

Earthquake Activity

City Distance Mag. Time & Date
Minimum magnitude displayed is 2.5.

Coastal Water Temperatures

Place Temperature

Stations

Nearby Weather Stations

Station Location Temp. Windchill Dew Point Humidity Wind Precip. Elev Updated Type
                   

Watches & Warnings

High Wind Warning
Issued: 3:08 AM CST Feb. 6, 2016 – National Weather Service

... High Wind Warning in effect from 6 PM this evening to 6 am CST
Monday...

The National Weather Service in Bismarck has issued a High Wind
Warning... which is in effect from 6 PM this evening to 6 am CST
Monday. The high wind watch is no longer in effect.

* Timing... Saturday evening through Sunday night.

* Winds... northwest winds gusting up to 65 mph are possible.

* Impacts... travel may become hazardous over western and portions
of central North Dakota. Snow and blowing snow may reduce
visibilities on Sunday.

Precautionary/preparedness actions...

A High Wind Warning means a hazardous high wind event is expected
or occurring. Sustained wind speeds of at least 40 mph or gusts
of 58 mph or more can lead to property damage.